Time,TemperatureF,DewpointF,PressureIn,WindDirection,WindDirectionDegrees,WindSpeedMPH,WindSpeedGustMPH,Humidity,HourlyPrecipIn,Conditions,Clouds,dailyrainin,SoftwareType,DateUTC
2013-05-21 00:01:00,68.2,66.7,29.95,West,261,0.0,0.0,95,0.00,,,0.00,WeatherCatV1.15B25,2013-05-21 04:01:00,
2013-05-21 00:06:00,68.1,66.6,29.94,West,261,0.0,0.0,95,0.00,,,0.00,WeatherCatV1.15B25,2013-05-21 04:06:00,
2013-05-21 00:11:00,68.0,66.5,29.94,West,261,0.0,0.0,95,0.00,,,0.00,WeatherCatV1.15B25,2013-05-21 04:11:00,
2013-05-21 00:16:00,67.9,66.4,29.94,West,261,0.0,0.0,95,0.00,,,0.00,WeatherCatV1.15B25,2013-05-21 04:16:00,
2013-05-21 00:20:00,67.9,66.4,29.94,West,261,1.0,2.0,95,0.00,,,0.00,WeatherCatV1.15B25,2013-05-21 04:20:00,
2013-05-21 00:25:00,67.8,66.3,29.94,West,261,0.0,0.0,95,0.00,,,0.00,WeatherCatV1.15B25,2013-05-21 04:25:00,
2013-05-21 00:30:00,67.7,66.2,29.94,West,261,0.0,0.0,95,0.00,,,0.00,WeatherCatV1.15B25,2013-05-21 04:30:00,
2013-05-21 00:35:00,67.6,66.1,29.94,West,261,0.0,0.0,95,0.00,,,0.00,WeatherCatV1.15B25,2013-05-21 04:35:00,
2013-05-21 00:40:00,67.5,66.0,29.94,West,261,0.0,0.0,95,0.00,,,0.00,WeatherCatV1.15B25,2013-05-21 04:40:00,
2013-05-21 00:45:00,67.5,66.0,29.94,West,261,0.0,0.0,95,0.00,,,0.00,WeatherCatV1.15B25,2013-05-21 04:45:00,
2013-05-21 00:50:00,67.4,65.9,29.94,West,261,0.0,0.0,95,0.00,,,0.00,WeatherCatV1.15B25,2013-05-21 04:50:00,
2013-05-21 00:55:00,67.3,65.8,29.94,West,261,0.0,0.0,95,0.00,,,0.00,WeatherCatV1.15B25,2013-05-21 04:55:00,
2013-05-21 01:00:00,67.2,65.7,29.94,West,261,0.0,0.0,95,0.00,,,0.00,WeatherCatV1.15B25,2013-05-21 05:00:00,
2013-05-21 01:05:00,67.1,65.6,29.94,West,261,0.0,0.0,95,0.00,,,0.00,WeatherCatV1.15B25,2013-05-21 05:05:00,
2013-05-21 01:10:00,67.0,65.5,29.94,West,261,0.0,0.0,95,0.00,,,0.00,WeatherCatV1.15B25,2013-05-21 05:10:00,
2013-05-21 01:12:00,67.0,65.5,29.94,West,261,0.0,0.0,95,0.00,,,0.00,WeatherCatV1.15B25,2013-05-21 05:12:00,
2013-05-21 01:17:00,66.9,65.4,29.94,West,261,0.0,0.0,95,0.00,,,0.00,WeatherCatV1.15B25,2013-05-21 05:17:00,
2013-05-21 01:22:00,66.8,65.3,29.94,West,261,0.0,0.0,95,0.00,,,0.00,WeatherCatV1.15B25,2013-05-21 05:22:00,
2013-05-21 01:27:00,66.7,65.2,29.94,West,261,0.0,0.0,95,0.00,,,0.00,WeatherCatV1.15B25,2013-05-21 05:27:00,
2013-05-21 01:32:00,66.7,65.2,29.94,West,261,0.0,0.0,95,0.00,,,0.00,WeatherCatV1.15B25,2013-05-21 05:32:00,
2013-05-21 01:37:00,66.6,65.1,29.94,West,261,0.0,0.0,95,0.00,,,0.00,WeatherCatV1.15B25,2013-05-21 05:37:00,
2013-05-21 01:42:00,66.5,65.0,29.94,West,261,0.0,0.0,95,0.00,,,0.00,WeatherCatV1.15B25,2013-05-21 05:42:00,
2013-05-21 01:47:00,66.4,64.9,29.94,West,261,0.0,0.0,95,0.00,,,0.00,WeatherCatV1.15B25,2013-05-21 05:47:00,
2013-05-21 01:52:00,66.3,64.8,29.94,West,261,0.0,0.0,95,0.00,,,0.00,WeatherCatV1.15B25,2013-05-21 05:52:00,
2013-05-21 01:57:00,66.3,64.8,29.94,West,261,0.0,0.0,95,0.00,,,0.00,WeatherCatV1.15B25,2013-05-21 05:57:00,
2013-05-21 02:02:00,66.2,64.7,29.94,West,261,0.0,0.0,95,0.00,,,0.00,WeatherCatV1.15B25,2013-05-21 06:02:00,
2013-05-21 02:07:00,66.2,64.7,29.93,West,261,0.0,0.0,95,0.00,,,0.00,WeatherCatV1.15B25,2013-05-21 06:07:00,
2013-05-21 02:12:00,66.1,64.6,29.93,West,261,0.0,0.0,95,0.00,,,0.00,WeatherCatV1.15B25,2013-05-21 06:12:00,
2013-05-21 02:17:00,66.0,64.5,29.93,West,261,0.0,0.0,95,0.00,,,0.00,WeatherCatV1.15B25,2013-05-21 06:17:00,
2013-05-21 02:22:00,65.9,64.4,29.93,West,261,0.0,0.0,95,0.00,,,0.00,WeatherCatV1.15B25,2013-05-21 06:22:00,
2013-05-21 02:27:00,65.9,64.4,29.93,West,261,0.0,0.0,95,0.00,,,0.00,WeatherCatV1.15B25,2013-05-21 06:27:00,
2013-05-21 02:32:00,65.8,64.3,29.93,West,261,0.0,0.0,95,0.00,,,0.00,WeatherCatV1.15B25,2013-05-21 06:32:00,
2013-05-21 02:37:00,65.8,64.3,29.93,West,261,0.0,0.0,95,0.00,,,0.00,WeatherCatV1.15B25,2013-05-21 06:37:00,
2013-05-21 02:42:00,65.6,64.1,29.93,West,261,0.0,0.0,95,0.00,,,0.00,WeatherCatV1.15B25,2013-05-21 06:42:00,
2013-05-21 02:47:00,65.4,63.9,29.93,West,261,0.0,1.0,95,0.00,,,0.00,WeatherCatV1.15B25,2013-05-21 06:47:00,
2013-05-21 02:52:00,65.2,63.7,29.93,West,261,0.0,0.0,95,0.00,,,0.00,WeatherCatV1.15B25,2013-05-21 06:52:00,
2013-05-21 02:57:00,65.1,63.6,29.93,West,261,0.0,0.0,95,0.00,,,0.00,WeatherCatV1.15B25,2013-05-21 06:57:00,
2013-05-21 03:02:00,65.0,63.5,29.93,West,261,2.0,2.0,95,0.00,,,0.00,WeatherCatV1.15B25,2013-05-21 07:02:00,
2013-05-21 03:07:00,65.0,63.5,29.93,West,261,0.0,0.0,95,0.00,,,0.00,WeatherCatV1.15B25,2013-05-21 07:07:00,
2013-05-21 03:12:00,64.8,63.3,29.93,West,261,0.0,0.0,95,0.00,,,0.00,WeatherCatV1.15B25,2013-05-21 07:12:00,
2013-05-21 03:17:00,64.8,63.3,29.92,West,261,0.0,0.0,95,0.00,,,0.00,WeatherCatV1.15B25,2013-05-21 07:17:00,
2013-05-21 03:22:00,64.7,63.2,29.93,West,261,0.0,0.0,95,0.00,,,0.00,WeatherCatV1.15B25,2013-05-21 07:22:00,
2013-05-21 03:27:00,64.6,63.1,29.92,West,261,0.0,0.0,95,0.00,,,0.00,WeatherCatV1.15B25,2013-05-21 07:27:00,
2013-05-21 03:32:00,64.6,63.1,29.92,West,261,0.0,1.0,95,0.00,,,0.00,WeatherCatV1.15B25,2013-05-21 07:32:00,
2013-05-21 03:37:00,64.5,63.3,29.92,West,261,0.0,0.0,96,0.00,,,0.00,WeatherCatV1.15B25,2013-05-21 07:37:00,
2013-05-21 03:42:00,64.4,63.2,29.92,West,261,0.0,0.0,96,0.00,,,0.00,WeatherCatV1.15B25,2013-05-21 07:42:00,
2013-05-21 03:47:00,64.4,63.2,29.92,West,261,0.0,0.0,96,0.00,,,0.00,WeatherCatV1.15B25,2013-05-21 07:47:00,
2013-05-21 03:52:00,64.3,63.1,29.92,West,261,0.0,0.0,96,0.00,,,0.00,WeatherCatV1.15B25,2013-05-21 07:52:00,
2013-05-21 03:57:00,64.2,62.7,29.93,West,261,0.0,0.0,95,0.00,,,0.00,WeatherCatV1.15B25,2013-05-21 07:57:00,
2013-05-21 04:02:00,64.1,62.6,29.92,West,261,0.0,0.0,95,0.00,,,0.00,WeatherCatV1.15B25,2013-05-21 08:02:00,
2013-05-21 04:07:00,64.0,62.5,29.92,West,261,0.0,0.0,95,0.00,,,0.00,WeatherCatV1.15B25,2013-05-21 08:07:00,
2013-05-21 04:12:00,64.0,62.8,29.92,West,261,0.0,0.0,96,0.00,,,0.00,WeatherCatV1.15B25,2013-05-21 08:12:00,
2013-05-21 04:17:00,63.9,62.7,29.92,West,261,0.0,0.0,96,0.00,,,0.00,WeatherCatV1.15B25,2013-05-21 08:17:00,
2013-05-21 04:22:00,63.9,62.7,29.92,West,261,0.0,0.0,96,0.00,,,0.00,WeatherCatV1.15B25,2013-05-21 08:22:00,
2013-05-21 04:27:00,63.9,62.4,29.92,West,261,0.0,0.0,95,0.00,,,0.00,WeatherCatV1.15B25,2013-05-21 08:27:00,
2013-05-21 04:32:00,63.9,62.4,29.92,West,261,0.0,0.0,95,0.00,,,0.00,WeatherCatV1.15B25,2013-05-21 08:32:00,
2013-05-21 04:37:00,63.9,62.4,29.92,West,261,0.0,0.0,95,0.00,,,0.00,WeatherCatV1.15B25,2013-05-21 08:37:00,
2013-05-21 04:42:00,63.9,62.7,29.92,West,261,0.0,0.0,96,0.00,,,0.00,WeatherCatV1.15B25,2013-05-21 08:42:00,
2013-05-21 04:47:00,64.0,62.8,29.93,West,261,0.0,0.0,96,0.00,,,0.00,WeatherCatV1.15B25,2013-05-21 08:47:00,
2013-05-21 04:52:00,63.9,62.7,29.93,West,261,0.0,0.0,96,0.00,,,0.00,WeatherCatV1.15B25,2013-05-21 08:52:00,
2013-05-21 04:57:00,64.0,62.8,29.93,West,261,0.0,0.0,96,0.00,,,0.00,WeatherCatV1.15B25,2013-05-21 08:57:00,
2013-05-21 05:02:00,64.0,62.8,29.92,West,261,0.0,0.0,96,0.00,,,0.00,WeatherCatV1.15B25,2013-05-21 09:02:00,
2013-05-21 05:07:00,64.0,62.8,29.92,West,261,0.0,0.0,96,0.00,,,0.00,WeatherCatV1.15B25,2013-05-21 09:07:00,
2013-05-21 05:12:00,64.0,62.8,29.92,West,261,0.0,1.0,96,0.00,,,0.00,WeatherCatV1.15B25,2013-05-21 09:12:00,
2013-05-21 05:16:00,64.1,62.9,29.92,West,261,0.0,0.0,96,0.00,,,0.00,WeatherCatV1.15B25,2013-05-21 09:16:00,
2013-05-21 05:21:00,64.1,62.9,29.92,West,261,0.0,0.0,96,0.00,,,0.00,WeatherCatV1.15B25,2013-05-21 09:21:00,
2013-05-21 05:26:00,64.0,62.8,29.92,West,261,0.0,0.0,96,0.00,,,0.00,WeatherCatV1.15B25,2013-05-21 09:26:00,
2013-05-21 05:31:00,63.9,62.7,29.92,West,261,0.0,0.0,96,0.00,,,0.00,WeatherCatV1.15B25,2013-05-21 09:31:00,
2013-05-21 05:36:00,63.9,62.7,29.92,West,261,0.0,0.0,96,0.00,,,0.00,WeatherCatV1.15B25,2013-05-21 09:36:00,
2013-05-21 05:41:00,63.9,62.7,29.92,West,261,0.0,0.0,96,0.00,,,0.00,WeatherCatV1.15B25,2013-05-21 09:41:00,
2013-05-21 05:46:00,63.9,62.7,29.93,West,261,0.0,0.0,96,0.00,,,0.00,WeatherCatV1.15B25,2013-05-21 09:46:00,
2013-05-21 05:51:00,63.8,62.6,29.92,West,261,0.0,0.0,96,0.00,,,0.00,WeatherCatV1.15B25,2013-05-21 09:51:00,
2013-05-21 05:56:00,63.8,62.6,29.92,West,261,0.0,0.0,96,0.00,,,0.00,WeatherCatV1.15B25,2013-05-21 09:56:00,
2013-05-21 06:01:00,63.8,62.6,29.92,West,261,0.0,0.0,96,0.00,,,0.00,WeatherCatV1.15B25,2013-05-21 10:01:00,
2013-05-21 06:06:00,63.7,62.5,29.92,West,261,0.0,0.0,96,0.00,,,0.00,WeatherCatV1.15B25,2013-05-21 10:06:00,
2013-05-21 06:11:00,63.7,62.5,29.93,West,261,0.0,0.0,96,0.00,,,0.00,WeatherCatV1.15B25,2013-05-21 10:11:00,
2013-05-21 06:16:00,63.8,62.6,29.93,West,261,0.0,0.0,96,0.00,,,0.00,WeatherCatV1.15B25,2013-05-21 10:16:00,
2013-05-21 06:21:00,63.7,62.5,29.92,West,261,0.0,0.0,96,0.00,,,0.00,WeatherCatV1.15B25,2013-05-21 10:21:00,
2013-05-21 06:26:00,63.7,62.5,29.92,West,261,0.0,0.0,96,0.00,,,0.00,WeatherCatV1.15B25,2013-05-21 10:26:00,
2013-05-21 06:31:00,63.8,62.6,29.93,West,261,0.0,0.0,96,0.00,,,0.00,WeatherCatV1.15B25,2013-05-21 10:31:00,
2013-05-21 06:36:00,63.8,62.6,29.93,West,261,0.0,0.0,96,0.00,,,0.00,WeatherCatV1.15B25,2013-05-21 10:36:00,
2013-05-21 06:41:00,63.8,62.6,29.93,West,261,0.0,0.0,96,0.00,,,0.00,WeatherCatV1.15B25,2013-05-21 10:41:00,
2013-05-21 06:46:00,64.0,62.8,29.93,West,261,0.0,0.0,96,0.00,,,0.00,WeatherCatV1.15B25,2013-05-21 10:46:00,
2013-05-21 06:51:00,64.0,62.8,29.93,West,261,0.0,0.0,96,0.00,,,0.00,WeatherCatV1.15B25,2013-05-21 10:51:00,
2013-05-21 06:53:00,64.0,62.8,29.93,West,261,0.0,0.0,96,0.00,,,0.00,WeatherCatV1.15B25,2013-05-21 10:53:00,
2013-05-21 06:58:00,64.1,62.9,29.93,West,261,0.0,0.0,96,0.00,,,0.00,WeatherCatV1.15B25,2013-05-21 10:58:00,
2013-05-21 07:03:00,64.0,62.8,29.94,West,261,0.0,0.0,96,0.00,,,0.00,WeatherCatV1.15B25,2013-05-21 11:03:00,
2013-05-21 07:08:00,64.0,62.8,29.94,West,261,0.0,0.0,96,0.00,,,0.00,WeatherCatV1.15B25,2013-05-21 11:08:00,
2013-05-21 07:13:00,64.0,62.8,29.94,West,261,0.0,0.0,96,0.00,,,0.00,WeatherCatV1.15B25,2013-05-21 11:13:00,
2013-05-21 07:18:00,64.1,62.9,29.94,West,261,0.0,0.0,96,0.00,,,0.00,WeatherCatV1.15B25,2013-05-21 11:18:00,
2013-05-21 07:23:00,64.1,62.9,29.94,West,261,0.0,0.0,96,0.00,,,0.00,WeatherCatV1.15B25,2013-05-21 11:23:00,
2013-05-21 07:28:00,64.2,63.0,29.94,West,261,0.0,0.0,96,0.00,,,0.00,WeatherCatV1.15B25,2013-05-21 11:28:00,
2013-05-21 07:33:00,64.3,63.1,29.94,West,261,0.0,0.0,96,0.00,,,0.00,WeatherCatV1.15B25,2013-05-21 11:33:00,
2013-05-21 07:38:00,64.4,63.2,29.94,West,261,0.0,0.0,96,0.00,,,0.00,WeatherCatV1.15B25,2013-05-21 11:38:00,
2013-05-21 07:43:00,64.5,63.3,29.95,West,261,0.0,0.0,96,0.00,,,0.00,WeatherCatV1.15B25,2013-05-21 11:43:00,
2013-05-21 07:48:00,64.6,63.4,29.95,West,261,0.0,0.0,96,0.00,,,0.00,WeatherCatV1.15B25,2013-05-21 11:48:00,
2013-05-21 07:53:00,64.8,63.6,29.95,West,261,0.0,0.0,96,0.00,,,0.00,WeatherCatV1.15B25,2013-05-21 11:53:00,
2013-05-21 07:58:00,64.9,63.7,29.95,West,261,0.0,0.0,96,0.00,,,0.00,WeatherCatV1.15B25,2013-05-21 11:58:00,
2013-05-21 08:03:00,65.1,63.9,29.95,West,261,0.0,0.0,96,0.00,,,0.00,WeatherCatV1.15B25,2013-05-21 12:03:00,
2013-05-21 08:08:00,65.2,64.0,29.95,West,261,0.0,0.0,96,0.00,,,0.00,WeatherCatV1.15B25,2013-05-21 12:08:00,
2013-05-21 08:13:00,65.4,64.2,29.95,West,261,0.0,0.0,96,0.00,,,0.00,WeatherCatV1.15B25,2013-05-21 12:13:00,
2013-05-21 08:18:00,65.6,64.4,29.95,West,261,0.0,0.0,96,0.00,,,0.00,WeatherCatV1.15B25,2013-05-21 12:18:00,
2013-05-21 08:23:00,65.9,64.7,29.96,West,261,0.0,0.0,96,0.00,,,0.00,WeatherCatV1.15B25,2013-05-21 12:23:00,
2013-05-21 08:28:00,66.2,65.0,29.95,West,261,0.0,0.0,96,0.00,,,0.00,WeatherCatV1.15B25,2013-05-21 12:28:00,
2013-05-21 08:33:00,66.8,65.6,29.95,West,261,0.0,0.0,96,0.00,,,0.00,WeatherCatV1.15B25,2013-05-21 12:33:00,
2013-05-21 08:38:00,67.2,66.3,29.96,West,261,0.0,0.0,97,0.00,,,0.00,WeatherCatV1.15B25,2013-05-21 12:38:00,
2013-05-21 08:43:00,67.7,66.5,29.96,West,261,0.0,0.0,96,0.00,,,0.00,WeatherCatV1.15B25,2013-05-21 12:43:00,
2013-05-21 08:48:00,68.1,67.2,29.95,West,261,0.0,0.0,97,0.00,,,0.00,WeatherCatV1.15B25,2013-05-21 12:48:00,
2013-05-21 08:53:00,68.5,67.6,29.95,West,261,0.0,0.0,97,0.00,,,0.00,WeatherCatV1.15B25,2013-05-21 12:53:00,
2013-05-21 08:58:00,68.7,67.8,29.95,West,261,0.0,1.0,97,0.00,,,0.00,WeatherCatV1.15B25,2013-05-21 12:58:00,
2013-05-21 09:03:00,68.7,67.5,29.95,West,261,0.0,0.0,96,0.00,,,0.00,WeatherCatV1.15B25,2013-05-21 13:03:00,
2013-05-21 09:08:00,68.9,67.7,29.96,West,261,0.0,0.0,96,0.00,,,0.00,WeatherCatV1.15B25,2013-05-21 13:08:00,
2013-05-21 09:13:00,69.4,68.5,29.96,West,261,0.0,0.0,97,0.00,,,0.00,WeatherCatV1.15B25,2013-05-21 13:13:00,
2013-05-21 09:18:00,69.7,68.8,29.96,West,261,0.0,2.0,97,0.00,,,0.00,WeatherCatV1.15B25,2013-05-21 13:18:00,
2013-05-21 09:23:00,69.9,69.0,29.96,West,274,0.0,1.0,97,0.00,,,0.00,WeatherCatV1.15B25,2013-05-21 13:23:00,
2013-05-21 09:28:00,70.5,69.6,29.96,West,274,0.0,0.0,97,0.00,,,0.00,WeatherCatV1.15B25,2013-05-21 13:28:00,
2013-05-21 09:32:00,71.2,70.3,29.96,WNW,282,1.0,4.0,97,0.00,,,0.00,WeatherCatV1.15B25,2013-05-21 13:32:00,
2013-05-21 09:37:00,71.8,70.9,29.96,NE,44,0.0,4.0,97,0.00,,,0.00,WeatherCatV1.15B25,2013-05-21 13:37:00,
2013-05-21 09:42:00,71.9,70.7,29.96,NE,51,3.0,4.0,96,0.00,,,0.00,WeatherCatV1.15B25,2013-05-21 13:42:00,
2013-05-21 09:47:00,72.0,70.5,29.96,NE,53,2.0,4.0,95,0.00,,,0.00,WeatherCatV1.15B25,2013-05-21 13:47:00,
2013-05-21 09:52:00,72.3,70.2,29.96,ENE,72,5.0,5.0,93,0.00,,,0.00,WeatherCatV1.15B25,2013-05-21 13:52:00,
2013-05-21 09:57:00,72.5,69.4,29.95,ENE,61,4.0,7.0,90,0.00,,,0.00,WeatherCatV1.15B25,2013-05-21 13:57:00,
2013-05-21 10:02:00,73.0,69.6,29.95,East,82,4.0,6.0,89,0.00,,,0.00,WeatherCatV1.15B25,2013-05-21 14:02:00,
2013-05-21 10:07:00,73.5,69.7,29.95,East,86,4.0,6.0,88,0.00,,,0.00,WeatherCatV1.15B25,2013-05-21 14:07:00,
2013-05-21 10:12:00,73.9,69.8,29.95,ENE,74,4.0,7.0,87,0.00,,,0.00,WeatherCatV1.15B25,2013-05-21 14:12:00,
2013-05-21 10:17:00,74.2,69.7,29.95,East,90,8.0,8.0,86,0.00,,,0.00,WeatherCatV1.15B25,2013-05-21 14:17:00,
2013-05-21 10:22:00,74.6,70.1,29.95,ENE,63,3.0,6.0,86,0.00,,,0.00,WeatherCatV1.15B25,2013-05-21 14:22:00,
2013-05-21 10:27:00,74.9,69.7,29.94,NE,54,2.0,4.0,84,0.00,,,0.00,WeatherCatV1.15B25,2013-05-21 14:27:00,
2013-05-21 10:32:00,75.4,70.6,29.94,ENE,63,5.0,6.0,85,0.00,,,0.00,WeatherCatV1.15B25,2013-05-21 14:32:00,
2013-05-21 10:37:00,75.6,69.7,29.94,NE,47,2.0,2.0,82,0.00,,,0.00,WeatherCatV1.15B25,2013-05-21 14:37:00,
2013-05-21 10:42:00,75.9,69.6,29.94,ENE,75,2.0,7.0,81,0.00,,,0.00,WeatherCatV1.15B25,2013-05-21 14:42:00,
2013-05-21 10:47:00,76.0,69.7,29.94,NE,53,0.0,5.0,81,0.00,,,0.00,WeatherCatV1.15B25,2013-05-21 14:47:00,
2013-05-21 10:52:00,76.4,70.1,29.94,NE,55,3.0,3.0,81,0.00,,,0.00,WeatherCatV1.15B25,2013-05-21 14:52:00,
2013-05-21 10:57:00,76.8,70.5,29.94,NE,53,5.0,5.0,81,0.00,,,0.00,WeatherCatV1.15B25,2013-05-21 14:57:00,
2013-05-21 11:02:00,76.8,70.1,29.94,NE,40,3.0,6.0,80,0.00,,,0.00,WeatherCatV1.15B25,2013-05-21 15:02:00,
2013-05-21 11:07:00,77.0,69.2,29.93,ENE,63,4.0,10.0,77,0.00,,,0.00,WeatherCatV1.15B25,2013-05-21 15:07:00,
2013-05-21 11:12:00,77.1,69.7,29.93,ENE,65,5.0,7.0,78,0.00,,,0.00,WeatherCatV1.15B25,2013-05-21 15:12:00,
2013-05-21 11:17:00,77.3,69.9,29.93,ENE,63,3.0,4.0,78,0.00,,,0.00,WeatherCatV1.15B25,2013-05-21 15:17:00,
2013-05-21 11:22:00,77.5,70.1,29.94,East,84,6.0,7.0,78,0.00,,,0.00,WeatherCatV1.15B25,2013-05-21 15:22:00,
2013-05-21 11:27:00,77.6,69.8,29.94,East,82,5.0,8.0,77,0.00,,,0.00,WeatherCatV1.15B25,2013-05-21 15:27:00,
2013-05-21 11:32:00,77.6,70.6,29.94,SW,229,2.0,5.0,79,0.00,,,0.00,WeatherCatV1.15B25,2013-05-21 15:32:00,
2013-05-21 11:37:00,77.8,69.2,29.94,SW,227,0.0,4.0,75,0.00,,,0.00,WeatherCatV1.15B25,2013-05-21 15:37:00,
2013-05-21 11:42:00,78.2,70.8,29.94,ENE,60,4.0,7.0,78,0.00,,,0.00,WeatherCatV1.15B25,2013-05-21 15:42:00,
2013-05-21 11:47:00,78.4,70.6,29.93,ENE,59,5.0,5.0,77,0.00,,,0.00,WeatherCatV1.15B25,2013-05-21 15:47:00,
2013-05-21 11:52:00,78.7,69.7,29.93,East,81,3.0,6.0,74,0.00,,,0.00,WeatherCatV1.15B25,2013-05-21 15:52:00,
2013-05-21 11:57:00,79.1,69.3,29.93,East,81,2.0,4.0,72,0.00,,,0.00,WeatherCatV1.15B25,2013-05-21 15:57:00,
2013-05-21 12:02:00,79.3,69.5,29.93,ENE,70,4.0,4.0,72,0.00,,,0.00,WeatherCatV1.15B25,2013-05-21 16:02:00,
2013-05-21 12:07:00,79.5,69.7,29.93,ENE,61,3.0,4.0,72,0.00,,,0.00,WeatherCatV1.15B25,2013-05-21 16:07:00,
2013-05-21 12:12:00,79.7,69.4,29.93,NE,56,5.0,6.0,71,0.00,,,0.00,WeatherCatV1.15B25,2013-05-21 16:12:00,
2013-05-21 12:17:00,79.7,68.6,29.93,East,99,0.0,7.0,69,0.00,,,0.00,WeatherCatV1.15B25,2013-05-21 16:17:00,
2013-05-21 12:22:00,80.1,69.8,29.93,NE,55,0.0,7.0,71,0.00,,,0.00,WeatherCatV1.15B25,2013-05-21 16:22:00,
2013-05-21 12:27:00,80.6,71.1,29.93,NE,50,2.0,3.0,73,0.00,,,0.00,WeatherCatV1.15B25,2013-05-21 16:27:00,
2013-05-21 12:32:00,80.7,68.7,29.93,NE,55,2.0,5.0,67,0.00,,,0.00,WeatherCatV1.15B25,2013-05-21 16:32:00,
2013-05-21 12:37:00,80.9,70.2,29.93,NE,56,1.0,1.0,70,0.00,,,0.00,WeatherCatV1.15B25,2013-05-21 16:37:00,
2013-05-21 12:42:00,80.9,68.9,29.93,ENE,58,5.0,8.0,67,0.00,,,0.00,WeatherCatV1.15B25,2013-05-21 16:42:00,
2013-05-21 12:47:00,80.8,68.8,29.93,SE,124,5.0,7.0,67,0.00,,,0.00,WeatherCatV1.15B25,2013-05-21 16:47:00,
2013-05-21 12:52:00,80.8,68.4,29.92,ENE,62,3.0,7.0,66,0.00,,,0.00,WeatherCatV1.15B25,2013-05-21 16:52:00,
2013-05-21 12:57:00,80.7,67.4,29.92,ENE,78,4.0,6.0,64,0.00,,,0.00,WeatherCatV1.15B25,2013-05-21 16:57:00,
2013-05-21 13:02:00,80.8,66.5,29.92,ENE,73,1.0,7.0,62,0.00,,,0.00,WeatherCatV1.15B25,2013-05-21 17:02:00,
2013-05-21 13:07:00,81.1,67.3,29.92,East,88,0.0,2.0,63,0.00,,,0.00,WeatherCatV1.15B25,2013-05-21 17:07:00,
2013-05-21 13:12:00,81.8,68.9,29.92,East,93,5.0,10.0,65,0.00,,,0.00,WeatherCatV1.15B25,2013-05-21 17:12:00,
2013-05-21 13:17:00,81.6,69.6,29.91,NE,51,3.0,8.0,67,0.00,,,0.00,WeatherCatV1.15B25,2013-05-21 17:17:00,
2013-05-21 13:22:00,81.3,67.9,29.91,East,88,4.0,11.0,64,0.00,,,0.00,WeatherCatV1.15B25,2013-05-21 17:22:00,
2013-05-21 13:27:00,81.0,68.1,29.90,NE,53,6.0,10.0,65,0.00,,,0.00,WeatherCatV1.15B25,2013-05-21 17:27:00,
2013-05-21 13:32:00,80.9,69.8,29.90,ENE,67,3.0,6.0,69,0.00,,,0.00,WeatherCatV1.15B25,2013-05-21 17:32:00,
2013-05-21 13:37:00,81.2,67.8,29.90,ESE,112,2.0,7.0,64,0.00,,,0.00,WeatherCatV1.15B25,2013-05-21 17:37:00,
2013-05-21 13:42:00,81.6,68.2,29.90,ENE,66,3.0,10.0,64,0.00,,,0.00,WeatherCatV1.15B25,2013-05-21 17:42:00,
2013-05-21 13:47:00,81.6,69.6,29.90,NE,44,6.0,7.0,67,0.00,,,0.00,WeatherCatV1.15B25,2013-05-21 17:47:00,
2013-05-21 13:52:00,81.7,68.3,29.90,NE,50,0.0,2.0,64,0.00,,,0.00,WeatherCatV1.15B25,2013-05-21 17:52:00,
2013-05-21 13:57:00,82.0,68.6,29.90,NNE,22,7.0,7.0,64,0.00,,,0.00,WeatherCatV1.15B25,2013-05-21 17:57:00,
2013-05-21 14:02:00,82.3,68.9,29.90,NNW,340,0.0,4.0,64,0.00,,,0.00,WeatherCatV1.15B25,2013-05-21 18:02:00,
2013-05-21 14:07:00,82.8,68.9,29.90,North,5,1.0,3.0,63,0.00,,,0.00,WeatherCatV1.15B25,2013-05-21 18:07:00,
2013-05-21 14:12:00,83.1,68.2,29.90,NNW,342,0.0,4.0,61,0.00,,,0.00,WeatherCatV1.15B25,2013-05-21 18:12:00,
2013-05-21 14:17:00,82.9,68.5,29.90,NNW,337,4.0,7.0,62,0.00,,,0.00,WeatherCatV1.15B25,2013-05-21 18:17:00,
2013-05-21 14:22:00,82.8,68.4,29.89,NE,46,1.0,7.0,62,0.00,,,0.00,WeatherCatV1.15B25,2013-05-21 18:22:00,
2013-05-21 14:27:00,83.1,67.3,29.89,NE,37,2.0,7.0,59,0.00,,,0.00,WeatherCatV1.15B25,2013-05-21 18:27:00,
2013-05-21 14:31:00,82.9,67.1,29.89,NE,40,2.0,4.0,59,0.00,,,0.00,WeatherCatV1.15B25,2013-05-21 18:31:00,
2013-05-21 14:36:00,82.6,70.1,29.89,NE,40,0.0,2.0,66,0.00,,,0.00,WeatherCatV1.15B25,2013-05-21 18:36:00,
2013-05-21 14:41:00,82.2,68.8,29.89,NE,40,2.0,3.0,64,0.00,,,0.00,WeatherCatV1.15B25,2013-05-21 18:41:00,
2013-05-21 14:46:00,82.1,69.1,29.88,NE,53,4.0,5.0,65,0.00,,,0.00,WeatherCatV1.15B25,2013-05-21 18:46:00,
2013-05-21 14:51:00,82.4,69.9,29.88,NE,56,2.0,6.0,66,0.00,,,0.00,WeatherCatV1.15B25,2013-05-21 18:51:00,
2013-05-21 14:56:00,82.7,69.7,29.88,NE,54,4.0,5.0,65,0.00,,,0.00,WeatherCatV1.15B25,2013-05-21 18:56:00,
2013-05-21 15:01:00,82.8,69.3,29.88,NE,40,3.0,6.0,64,0.00,,,0.00,WeatherCatV1.15B25,2013-05-21 19:01:00,
2013-05-21 15:06:00,82.8,68.4,29.88,SE,131,2.0,7.0,62,0.00,,,0.00,WeatherCatV1.15B25,2013-05-21 19:06:00,
2013-05-21 15:11:00,82.6,67.3,29.87,SE,145,5.0,10.0,60,0.00,,,0.00,WeatherCatV1.15B25,2013-05-21 19:11:00,
2013-05-21 15:16:00,82.8,68.9,29.87,NE,56,5.0,7.0,63,0.00,,,0.00,WeatherCatV1.15B25,2013-05-21 19:16:00,
2013-05-21 15:21:00,82.9,69.0,29.87,East,80,5.0,10.0,63,0.00,,,0.00,WeatherCatV1.15B25,2013-05-21 19:21:00,
2013-05-21 15:26:00,82.9,68.0,29.87,NE,44,3.0,6.0,61,0.00,,,0.00,WeatherCatV1.15B25,2013-05-21 19:26:00,
2013-05-21 15:31:00,83.1,69.6,29.86,East,82,8.0,10.0,64,0.00,,,0.00,WeatherCatV1.15B25,2013-05-21 19:31:00,
2013-05-21 15:36:00,83.1,68.7,29.86,NNE,17,3.0,6.0,62,0.00,,,0.00,WeatherCatV1.15B25,2013-05-21 19:36:00,
2013-05-21 15:41:00,83.5,69.1,29.86,SSE,162,4.0,8.0,62,0.00,,,0.00,WeatherCatV1.15B25,2013-05-21 19:41:00,
2013-05-21 15:46:00,83.7,68.3,29.86,NE,45,4.0,10.0,60,0.00,,,0.00,WeatherCatV1.15B25,2013-05-21 19:46:00,
2013-05-21 15:51:00,83.5,67.6,29.86,NE,51,3.0,13.0,59,0.00,,,0.00,WeatherCatV1.15B25,2013-05-21 19:51:00,
2013-05-21 15:56:00,83.5,69.1,29.85,NE,53,4.0,6.0,62,0.00,,,0.00,WeatherCatV1.15B25,2013-05-21 19:56:00,
2013-05-21 16:01:00,83.6,68.2,29.85,NE,34,4.0,9.0,60,0.00,,,0.00,WeatherCatV1.15B25,2013-05-21 20:01:00,
2013-05-21 16:06:00,83.6,68.2,29.85,East,84,5.0,6.0,60,0.00,,,0.00,WeatherCatV1.15B25,2013-05-21 20:06:00,
2013-05-21 16:11:00,83.5,67.6,29.85,East,97,5.0,6.0,59,0.00,,,0.00,WeatherCatV1.15B25,2013-05-21 20:11:00,
2013-05-21 16:16:00,83.6,70.1,29.85,ENE,62,0.0,4.0,64,0.00,,,0.00,WeatherCatV1.15B25,2013-05-21 20:16:00,
2013-05-21 16:21:00,83.9,67.0,29.84,ENE,63,3.0,6.0,57,0.00,,,0.00,WeatherCatV1.15B25,2013-05-21 20:21:00,
2013-05-21 16:26:00,84.0,68.6,29.84,NE,54,3.0,4.0,60,0.00,,,0.00,WeatherCatV1.15B25,2013-05-21 20:26:00,
2013-05-21 16:31:00,83.9,67.5,29.84,SSE,164,8.0,12.0,58,0.00,,,0.00,WeatherCatV1.15B25,2013-05-21 20:31:00,
2013-05-21 16:36:00,83.8,66.4,29.83,ENE,67,6.0,12.0,56,0.00,,,0.00,WeatherCatV1.15B25,2013-05-21 20:36:00,
2013-05-21 16:41:00,83.7,67.8,29.84,ENE,59,2.0,4.0,59,0.00,,,0.00,WeatherCatV1.15B25,2013-05-21 20:41:00,
2013-05-21 16:46:00,84.0,69.1,29.84,ENE,78,4.0,6.0,61,0.00,,,0.00,WeatherCatV1.15B25,2013-05-21 20:46:00,
2013-05-21 16:51:00,84.2,67.8,29.84,NE,51,10.0,10.0,58,0.00,,,0.00,WeatherCatV1.15B25,2013-05-21 20:51:00,
2013-05-21 16:56:00,84.1,68.7,29.83,ENE,72,4.0,5.0,60,0.00,,,0.00,WeatherCatV1.15B25,2013-05-21 20:56:00,
2013-05-21 17:01:00,84.0,67.6,29.84,East,82,4.0,8.0,58,0.00,,,0.00,WeatherCatV1.15B25,2013-05-21 21:01:00,
2013-05-21 17:06:00,83.9,67.0,29.83,ESE,116,5.0,7.0,57,0.00,,,0.00,WeatherCatV1.15B25,2013-05-21 21:06:00,
2013-05-21 17:11:00,83.8,67.9,29.83,East,82,7.0,10.0,59,0.00,,,0.00,WeatherCatV1.15B25,2013-05-21 21:11:00,
2013-05-21 17:16:00,83.6,67.7,29.83,ENE,69,5.0,6.0,59,0.00,,,0.00,WeatherCatV1.15B25,2013-05-21 21:16:00,
2013-05-21 17:21:00,83.8,68.9,29.83,ENE,67,3.0,5.0,61,0.00,,,0.00,WeatherCatV1.15B25,2013-05-21 21:21:00,
2013-05-21 17:26:00,83.9,68.5,29.83,NE,56,5.0,8.0,60,0.00,,,0.00,WeatherCatV1.15B25,2013-05-21 21:26:00,
2013-05-21 17:31:00,83.9,67.0,29.83,ENE,74,4.0,7.0,57,0.00,,,0.00,WeatherCatV1.15B25,2013-05-21 21:31:00,
2013-05-21 17:36:00,83.8,66.9,29.83,ENE,57,2.0,8.0,57,0.00,,,0.00,WeatherCatV1.15B25,2013-05-21 21:36:00,
2013-05-21 17:41:00,83.7,67.8,29.83,ENE,64,7.0,10.0,59,0.00,,,0.00,WeatherCatV1.15B25,2013-05-21 21:41:00,
2013-05-21 17:46:00,83.6,66.2,29.83,NE,55,10.0,10.0,56,0.00,,,0.00,WeatherCatV1.15B25,2013-05-21 21:46:00,
2013-05-21 17:51:00,83.7,67.3,29.83,ENE,57,2.0,6.0,58,0.00,,,0.00,WeatherCatV1.15B25,2013-05-21 21:51:00,
2013-05-21 17:56:00,83.9,69.5,29.82,ENE,58,3.0,3.0,62,0.00,,,0.00,WeatherCatV1.15B25,2013-05-21 21:56:00,
2013-05-21 18:01:00,84.1,67.2,29.82,ENE,67,2.0,5.0,57,0.00,,,0.00,WeatherCatV1.15B25,2013-05-21 22:01:00,
2013-05-21 18:06:00,84.1,66.7,29.82,East,99,4.0,5.0,56,0.00,,,0.00,WeatherCatV1.15B25,2013-05-21 22:06:00,
2013-05-21 18:11:00,84.0,68.1,29.82,East,94,1.0,5.0,59,0.00,,,0.00,WeatherCatV1.15B25,2013-05-21 22:11:00,
2013-05-21 18:16:00,83.8,66.9,29.81,ENE,57,5.0,6.0,57,0.00,,,0.00,WeatherCatV1.15B25,2013-05-21 22:16:00,
2013-05-21 18:21:00,83.6,67.7,29.81,NE,42,2.0,5.0,59,0.00,,,0.00,WeatherCatV1.15B25,2013-05-21 22:21:00,
2013-05-21 18:26:00,83.5,67.6,29.81,East,96,4.0,4.0,59,0.00,,,0.00,WeatherCatV1.15B25,2013-05-21 22:26:00,
2013-05-21 18:31:00,83.4,67.0,29.81,NE,34,4.0,6.0,58,0.00,,,0.00,WeatherCatV1.15B25,2013-05-21 22:31:00,
2013-05-21 18:36:00,83.4,67.5,29.81,ENE,62,3.0,7.0,59,0.00,,,0.00,WeatherCatV1.15B25,2013-05-21 22:36:00,
2013-05-21 18:41:00,83.3,67.4,29.82,ENE,59,3.0,5.0,59,0.00,,,0.00,WeatherCatV1.15B25,2013-05-21 22:41:00,
2013-05-21 18:46:00,83.2,68.3,29.82,ENE,58,2.0,3.0,61,0.00,,,0.00,WeatherCatV1.15B25,2013-05-21 22:46:00,
2013-05-21 18:51:00,83.1,67.7,29.82,East,101,5.0,5.0,60,0.00,,,0.00,WeatherCatV1.15B25,2013-05-21 22:51:00,
2013-05-21 18:56:00,83.0,69.1,29.82,NE,53,2.0,3.0,63,0.00,,,0.00,WeatherCatV1.15B25,2013-05-21 22:56:00,
2013-05-21 19:01:00,82.8,69.8,29.82,NE,53,0.0,1.0,65,0.00,,,0.00,WeatherCatV1.15B25,2013-05-21 23:01:00,
2013-05-21 19:06:00,82.9,70.3,29.82,NE,53,0.0,1.0,66,0.00,,,0.00,WeatherCatV1.15B25,2013-05-21 23:06:00,
2013-05-21 19:11:00,83.0,70.4,29.82,NE,53,0.0,0.0,66,0.00,,,0.00,WeatherCatV1.15B25,2013-05-21 23:11:00,
2013-05-21 19:16:00,82.9,72.5,29.82,NE,53,0.0,0.0,71,0.00,,,0.00,WeatherCatV1.15B25,2013-05-21 23:16:00,
2013-05-21 19:21:00,82.7,70.6,29.82,NE,53,1.0,3.0,67,0.00,,,0.00,WeatherCatV1.15B25,2013-05-21 23:21:00,
2013-05-21 19:26:00,82.5,70.8,29.82,NE,53,0.0,1.0,68,0.00,,,0.00,WeatherCatV1.15B25,2013-05-21 23:26:00,
2013-05-21 19:31:00,82.3,71.9,29.82,NE,53,0.0,0.0,71,0.00,,,0.00,WeatherCatV1.15B25,2013-05-21 23:31:00,
2013-05-21 19:35:00,82.0,70.4,29.81,NE,53,0.0,0.0,68,0.00,,,0.00,WeatherCatV1.15B25,2013-05-21 23:35:00,
2013-05-21 19:40:00,81.7,69.6,29.81,NE,53,0.0,0.0,67,0.00,,,0.00,WeatherCatV1.15B25,2013-05-21 23:40:00,
2013-05-21 19:45:00,81.3,69.7,29.82,NE,53,0.0,0.0,68,0.00,,,0.00,WeatherCatV1.15B25,2013-05-21 23:45:00,
2013-05-21 19:50:00,80.6,70.3,29.82,NE,53,2.0,3.0,71,0.00,,,0.00,WeatherCatV1.15B25,2013-05-21 23:50:00,
2013-05-21 19:55:00,79.4,69.6,29.82,NE,53,0.0,1.0,72,0.00,,,0.00,WeatherCatV1.15B25,2013-05-21 23:55:00,
2013-05-21 20:00:00,78.7,69.7,29.82,NE,53,0.0,0.0,74,0.00,,,0.00,WeatherCatV1.15B25,2013-05-22 00:00:00,
2013-05-21 20:05:00,78.3,70.5,29.82,NE,53,0.0,0.0,77,0.00,,,0.00,WeatherCatV1.15B25,2013-05-22 00:05:00,
2013-05-21 20:10:00,78.0,70.6,29.82,NE,53,0.0,0.0,78,0.00,,,0.00,WeatherCatV1.15B25,2013-05-22 00:10:00,
2013-05-21 20:15:00,77.2,70.9,29.83,NE,53,0.0,2.0,81,0.00,,,0.00,WeatherCatV1.15B25,2013-05-22 00:15:00,
2013-05-21 20:20:00,76.6,69.6,29.83,NE,53,0.0,2.0,79,0.00,,,0.00,WeatherCatV1.15B25,2013-05-22 00:20:00,
2013-05-21 20:25:00,76.4,69.8,29.83,NE,53,0.0,2.0,80,0.00,,,0.00,WeatherCatV1.15B25,2013-05-22 00:25:00,
2013-05-21 20:30:00,76.4,68.3,29.83,NE,53,2.0,3.0,76,0.00,,,0.00,WeatherCatV1.15B25,2013-05-22 00:30:00,
2013-05-21 20:35:00,76.3,70.0,29.83,NE,53,2.0,2.0,81,0.00,,,0.00,WeatherCatV1.15B25,2013-05-22 00:35:00,
2013-05-21 20:40:00,76.0,69.7,29.83,NE,53,0.0,0.0,81,0.00,,,0.00,WeatherCatV1.15B25,2013-05-22 00:40:00,
2013-05-21 20:45:00,75.8,69.2,29.83,NE,53,0.0,0.0,80,0.00,,,0.00,WeatherCatV1.15B25,2013-05-22 00:45:00,
2013-05-21 20:50:00,75.6,69.3,29.84,NE,53,3.0,3.0,81,0.00,,,0.00,WeatherCatV1.15B25,2013-05-22 00:50:00,
2013-05-21 20:55:00,75.3,68.3,29.84,WNW,284,0.0,7.0,79,0.00,,,0.00,WeatherCatV1.15B25,2013-05-22 00:55:00,
2013-05-21 21:00:00,74.9,67.6,29.84,SE,146,0.0,2.0,78,0.00,,,0.00,WeatherCatV1.15B25,2013-05-22 01:00:00,
2013-05-21 21:05:00,74.4,67.4,29.84,SW,232,3.0,12.0,79,0.00,,,0.00,WeatherCatV1.15B25,2013-05-22 01:05:00,
2013-05-21 21:10:00,73.7,67.1,29.85,SSE,149,2.0,7.0,80,0.55,,,0.02,WeatherCatV1.15B25,2013-05-22 01:10:00,
2013-05-21 21:15:00,72.9,66.7,29.85,WNW,289,2.0,5.0,81,0.34,,,0.06,WeatherCatV1.15B25,2013-05-22 01:15:00,
2013-05-21 21:20:00,72.0,66.2,29.85,WNW,290,2.0,6.0,82,0.16,,,0.07,WeatherCatV1.15B25,2013-05-22 01:20:00,
2013-05-21 21:25:00,71.1,66.7,29.86,WNW,290,0.0,2.0,86,0.07,,,0.07,WeatherCatV1.15B25,2013-05-22 01:25:00,
2013-05-21 21:30:00,70.3,66.2,29.88,WNW,288,0.0,2.0,87,0.17,,,0.09,WeatherCatV1.15B25,2013-05-22 01:30:00,
2013-05-21 21:35:00,69.8,66.4,29.88,WSW,250,3.0,8.0,89,3.53,,,0.23,WeatherCatV1.15B25,2013-05-22 01:35:00,
2013-05-21 21:40:00,69.2,65.8,29.89,NNW,327,8.0,26.0,89,3.74,,,0.38,WeatherCatV1.15B25,2013-05-22 01:40:00,
2013-05-21 21:45:00,67.8,64.1,29.89,SSW,200,10.0,18.0,88,1.77,,,0.57,WeatherCatV1.15B25,2013-05-22 01:45:00,
2013-05-21 21:50:00,66.5,62.8,29.90,WNW,300,5.0,17.0,88,1.40,,,0.65,WeatherCatV1.15B25,2013-05-22 01:50:00,
2013-05-21 21:55:00,65.8,62.5,29.93,West,259,5.0,13.0,89,10.11,,,0.93,WeatherCatV1.15B25,2013-05-22 01:55:00,
2013-05-21 22:00:00,65.6,62.6,29.90,NW,316,9.0,12.0,90,3.05,,,1.24,WeatherCatV1.15B25,2013-05-22 02:00:00,
2013-05-21 22:05:00,65.7,63.0,29.90,North,355,4.0,7.0,91,1.89,,,1.39,WeatherCatV1.15B25,2013-05-22 02:05:00,
2013-05-21 22:10:00,65.7,63.0,29.92,NE,40,8.0,13.0,91,1.56,,,1.53,WeatherCatV1.15B25,2013-05-22 02:10:00,
2013-05-21 22:15:00,65.6,62.9,29.92,North,9,8.0,15.0,91,3.05,,,1.83,WeatherCatV1.15B25,2013-05-22 02:15:00,
2013-05-21 22:20:00,65.0,62.3,29.91,NNE,21,2.0,7.0,91,2.94,,,2.04,WeatherCatV1.15B25,2013-05-22 02:20:00,
2013-05-21 22:25:00,64.5,61.8,29.90,North,351,0.0,5.0,91,0.98,,,2.15,WeatherCatV1.15B25,2013-05-22 02:25:00,
2013-05-21 22:29:00,64.3,61.9,29.91,NW,312,6.0,12.0,92,0.46,,,2.19,WeatherCatV1.15B25,2013-05-22 02:29:00,
2013-05-21 22:34:00,64.6,62.5,29.90,WNW,283,1.0,8.0,93,0.30,,,2.21,WeatherCatV1.15B25,2013-05-22 02:34:00,
2013-05-21 22:39:00,64.5,62.1,29.90,NNW,338,6.0,12.0,92,0.13,,,2.22,WeatherCatV1.15B25,2013-05-22 02:39:00,
2013-05-21 22:44:00,64.4,61.1,29.90,ENE,59,5.0,6.0,89,0.13,,,2.23,WeatherCatV1.15B25,2013-05-22 02:44:00,
2013-05-21 22:49:00,64.6,61.3,29.91,NNW,336,2.0,5.0,89,0.08,,,2.23,WeatherCatV1.15B25,2013-05-22 02:49:00,
2013-05-21 22:54:00,64.4,61.1,29.90,NE,41,5.0,7.0,89,0.05,,,2.23,WeatherCatV1.15B25,2013-05-22 02:54:00,
2013-05-21 22:59:00,64.2,61.5,29.89,SSW,202,5.0,5.0,91,0.00,,,2.23,WeatherCatV1.15B25,2013-05-22 02:59:00,
2013-05-21 23:04:00,63.9,61.5,29.89,SW,223,5.0,5.0,92,0.00,,,2.23,WeatherCatV1.15B25,2013-05-22 03:04:00,
2013-05-21 23:09:00,63.6,61.5,29.89,SSW,203,5.0,8.0,93,0.00,,,2.23,WeatherCatV1.15B25,2013-05-22 03:09:00,
2013-05-21 23:14:00,63.5,61.4,29.89,South,182,4.0,10.0,93,0.00,,,2.23,WeatherCatV1.15B25,2013-05-22 03:14:00,
2013-05-21 23:19:00,63.5,61.4,29.90,SSW,211,0.0,2.0,93,0.00,,,2.23,WeatherCatV1.15B25,2013-05-22 03:19:00,
2013-05-21 23:24:00,63.6,61.5,29.90,ESE,114,2.0,5.0,93,0.00,,,2.23,WeatherCatV1.15B25,2013-05-22 03:24:00,
2013-05-21 23:29:00,63.6,61.5,29.90,South,190,3.0,6.0,93,0.00,,,2.23,WeatherCatV1.15B25,2013-05-22 03:29:00,
2013-05-21 23:34:00,63.6,61.5,29.90,South,183,0.0,5.0,93,0.00,,,2.23,WeatherCatV1.15B25,2013-05-22 03:34:00,
2013-05-21 23:39:00,63.6,61.8,29.90,South,180,4.0,5.0,94,0.00,,,2.23,WeatherCatV1.15B25,2013-05-22 03:39:00,
2013-05-21 23:44:00,63.6,61.8,29.91,East,101,4.0,6.0,94,0.00,,,2.23,WeatherCatV1.15B25,2013-05-22 03:44:00,
2013-05-21 23:49:00,63.5,61.7,29.91,East,101,0.0,2.0,94,0.00,,,2.23,WeatherCatV1.15B25,2013-05-22 03:49:00,
2013-05-21 23:54:00,63.5,61.7,29.91,East,101,0.0,0.0,94,0.00,,,2.23,WeatherCatV1.15B25,2013-05-22 03:54:00,
2013-05-21 23:59:00,63.4,61.6,29.91,East,101,2.0,2.0,94,0.00,,,2.23,WeatherCatV1.15B25,2013-05-22 03:59:00,